This is the latest recevied weather packets stored in our database for station/object OK6FS-6. If no packets are shown the sender has not sent any weather packets the latest 10 day(s).
| Time | Temp. | Humidity | Pressure | Rain* | Wind** | Luminosity | Snow |
|---|---|---|---|---|---|---|---|
| 1777546472 | 15.56° C | 24% | 1032.8 hPa | - | - | - | - |
| 1777544312 | 17.22° C | 24% | 1033.2 hPa | - | - | - | - |
| 1777539283 | 16.11° C | 24% | 1034 hPa | - | - | - | - |
| 1777536390 | 17.22° C | 24% | 1034.4 hPa | - | - | - | - |
| 1777532796 | 15.56° C | 26% | 1034.7 hPa | - | - | - | - |
| 1777528459 | 6.11° C | 43% | 1034.6 hPa | - | - | - | - |
| 1777522717 | 2.78° C | 48% | 1034.2 hPa | - | - | - | - |
| 1777519827 | 3.89° C | 43% | 1033.8 hPa | - | - | - | - |
| 1777517679 | 3.89° C | 43% | 1033.5 hPa | - | - | - | - |
| 1777516254 | 3.89° C | 43% | 1033.5 hPa | - | - | - | - |
| 1777514062 | 4.44° C | 42% | 1033.4 hPa | - | - | - | - |
| 1777513360 | 4.44° C | 42% | 1033.3 hPa | - | - | - | - |
| 1777511191 | 4.44° C | 42% | 1033.2 hPa | - | - | - | - |
| 1777504001 | 5.56° C | 40% | 1033 hPa | - | - | - | - |
| 1777502556 | 6.11° C | 38% | 1033 hPa | - | - | - | - |
| 1777498963 | 7.22° C | 35% | 1032.3 hPa | - | - | - | - |
| 1777491759 | 8.33° C | 32% | 1030.9 hPa | - | - | - | - |
| 1777484551 | 10.56° C | 26% | 1028.6 hPa | - | - | - | - |
| 1777483839 | 10.56° C | 25% | 1028.3 hPa | - | - | - | - |
| 1777480225 | 12.78° C | 26% | 1027.2 hPa | - | - | - | - |
| 1777478799 | 13.33° C | 29% | 1027 hPa | - | - | - | - |
| 1777472313 | 15.56° C | 31% | 1026.3 hPa | - | - | - | - |
| 1777470882 | 16.67° C | 30% | 1026 hPa | - | - | - | - |
| 1777461516 | 17.78° C | 26% | 1026.3 hPa | - | - | - | - |
| 1777448560 | 18.33° C | 24% | 1027.7 hPa | - | - | - | - |
* Rain since midnight (hover to see other rain measurements)
** Current wind speed in m/s (hover to see current wind gust speed)